Time;durP1;ratioP1;P1;durP2;ratioP2;P2;SDS_P1;SDS_P2;PMS_P1;PMS_P2;Temp;Humidity;BMP_temperature;BMP_pressure;BME280_temperature;BME280_humidity;BME280_pressure;Samples;Min_cycle;Max_cycle;Signal;HPM_P1;HPM_P2
2021/08/07 00:01:20;;;;;;;0.40;0.30;;;15.70;99.90;;;;;;4995327;28;20460;-79
2021/08/07 00:03:47;;;;;;;0.40;0.40;;;15.60;99.90;;;;;;4995567;28;20448;-79
2021/08/07 00:06:13;;;;;;;0.47;0.47;;;15.60;99.90;;;;;;4995251;28;20484;-79
2021/08/07 00:08:41;;;;;;;0.30;0.30;;;15.60;99.90;;;;;;4995490;28;20440;-79
2021/08/07 00:11:08;;;;;;;0.40;0.40;;;15.60;99.90;;;;;;4995565;28;20828;-80
2021/08/07 00:13:34;;;;;;;0.60;0.40;;;15.60;99.90;;;;;;4995454;28;20449;-80
2021/08/07 00:16:01;;;;;;;0.40;0.40;;;15.60;99.90;;;;;;4995346;28;20479;-80
2021/08/07 00:18:29;;;;;;;0.40;0.40;;;15.60;99.90;;;;;;4995493;28;20896;-80
2021/08/07 00:20:56;;;;;;;0.47;0.40;;;15.60;99.90;;;;;;4995195;28;20487;-80
2021/08/07 00:23:23;;;;;;;0.50;0.50;;;15.60;99.90;;;;;;4995051;28;20936;-80
2021/08/07 00:25:50;;;;;;;0.50;0.40;;;15.60;99.90;;;;;;4994390;28;20445;-79
2021/08/07 00:28:16;;;;;;;0.80;0.40;;;15.60;99.90;;;;;;4994819;28;20459;-79
2021/08/07 00:30:43;;;;;;;0.80;0.47;;;15.60;99.90;;;;;;4995130;28;21000;-84
2021/08/07 00:33:10;;;;;;;0.40;0.30;;;15.60;99.90;;;;;;4995633;28;20448;-84
2021/08/07 00:35:38;;;;;;;0.60;0.40;;;15.60;99.90;;;;;;4995104;28;20499;-83
2021/08/07 00:38:05;;;;;;;0.40;0.40;;;15.60;99.90;;;;;;4995116;28;20823;-83
2021/08/07 00:40:32;;;;;;;0.40;0.40;;;15.60;99.90;;;;;;4995001;28;20459;-79
2021/08/07 00:42:58;;;;;;;0.40;0.40;;;15.60;99.90;;;;;;4994505;28;20948;-79
2021/08/07 00:45:25;;;;;;;0.83;0.50;;;15.60;99.90;;;;;;4994566;28;20440;-79
2021/08/07 00:47:52;;;;;;;0.40;0.40;;;15.60;99.90;;;;;;4994480;28;20959;-79
2021/08/07 00:50:19;;;;;;;0.40;0.37;;;15.70;99.90;;;;;;4994664;28;20455;-79
2021/08/07 00:52:47;;;;;;;0.40;0.40;;;15.70;99.90;;;;;;4994495;28;20940;-79
2021/08/07 00:55:14;;;;;;;0.50;0.40;;;15.70;99.90;;;;;;4994445;28;21021;-80
2021/08/07 00:57:40;;;;;;;0.40;0.33;;;15.80;99.90;;;;;;4994671;28;20491;-84
2021/08/07 01:00:08;;;;;;;0.70;0.50;;;15.80;99.90;;;;;;4995142;28;20458;-79
2021/08/07 01:02:35;;;;;;;0.43;0.43;;;15.80;99.90;;;;;;4994268;28;20469;-79
2021/08/07 01:05:07;;;;;;;1.80;0.60;;;15.80;99.90;;;;;;4994450;28;20452;-79
2021/08/07 01:07:44;;;;;;;0.40;0.40;;;15.80;99.90;;;;;;4994562;28;20475;-80
2021/08/07 01:10:18;;;;;;;0.40;0.30;;;15.80;99.90;;;;;;4994561;28;20436;-80
2021/08/07 01:12:50;;;;;;;0.30;0.30;;;15.90;99.90;;;;;;4994644;28;20456;-79
2021/08/07 01:15:21;;;;;;;0.57;0.57;;;15.90;99.90;;;;;;4994292;28;20469;-79
2021/08/07 01:17:49;;;;;;;1.03;0.90;;;15.80;99.90;;;;;;4994601;28;20439;-82
2021/08/07 01:20:19;;;;;;;0.40;0.40;;;15.80;99.90;;;;;;4994171;28;20941;-83
2021/08/07 01:22:59;;;;;;;0.40;0.40;;;15.80;99.90;;;;;;4994466;28;20421;-84
2021/08/07 01:25:37;;;;;;;0.50;0.40;;;15.80;99.90;;;;;;4995610;28;20437;-83
2021/08/07 01:28:05;;;;;;;0.50;0.50;;;15.80;99.90;;;;;;4994261;28;20932;-78
2021/08/07 01:30:32;;;;;;;0.60;0.50;;;15.80;99.90;;;;;;4994011;28;20939;-79
2021/08/07 01:33:00;;;;;;;0.80;0.80;;;15.90;99.90;;;;;;4993863;28;20433;-79
2021/08/07 01:35:26;;;;;;;0.60;0.40;;;15.80;99.90;;;;;;4994027;28;20484;-79
2021/08/07 01:37:54;;;;;;;2.63;0.70;;;15.90;99.90;;;;;;4993552;28;20447;-78
2021/08/07 01:40:20;;;;;;;0.40;0.30;;;15.90;99.90;;;;;;4993647;28;20822;-79
2021/08/07 01:42:47;;;;;;;0.50;0.50;;;15.90;99.90;;;;;;4993671;28;20940;-78
2021/08/07 01:45:15;;;;;;;0.40;0.37;;;15.90;99.90;;;;;;4993928;28;20452;-78
2021/08/07 01:47:44;;;;;;;0.30;0.30;;;16.00;99.90;;;;;;4993991;28;20459;-79
2021/08/07 01:50:17;;;;;;;0.50;0.50;;;16.00;99.90;;;;;;4993797;28;20456;-79
2021/08/07 01:52:47;;;;;;;0.40;0.30;;;16.00;99.90;;;;;;4993804;28;20912;-78
2021/08/07 01:55:17;;;;;;;0.40;0.40;;;15.90;99.90;;;;;;4993795;28;20495;-79
2021/08/07 01:57:51;;;;;;;0.50;0.50;;;15.90;99.90;;;;;;4993804;28;20480;-79
2021/08/07 02:00:20;;;;;;;0.30;0.30;;;15.90;99.90;;;;;;4993683;28;20413;-79
2021/08/07 02:02:48;;;;;;;0.47;0.40;;;15.90;99.90;;;;;;4993576;28;20795;-79
2021/08/07 02:05:18;;;;;;;0.40;0.30;;;15.80;99.90;;;;;;4993774;28;20448;-79
2021/08/07 02:07:48;;;;;;;0.40;0.30;;;15.80;99.90;;;;;;4993494;28;20944;-79
2021/08/07 02:10:15;;;;;;;0.40;0.40;;;15.80;99.90;;;;;;4993704;28;20463;-79
2021/08/07 02:12:43;;;;;;;0.40;0.40;;;15.80;99.90;;;;;;4993771;28;20449;-79
2021/08/07 02:15:11;;;;;;;0.40;0.40;;;15.80;99.90;;;;;;4993367;28;20480;-79
2021/08/07 02:17:41;;;;;;;0.40;0.40;;;15.80;99.90;;;;;;4993660;28;20489;-79
2021/08/07 02:20:09;;;;;;;0.40;0.40;;;15.80;99.90;;;;;;4993445;28;20916;-79
2021/08/07 02:22:36;;;;;;;0.70;0.50;;;15.80;99.90;;;;;;4993546;28;20475;-79
2021/08/07 02:25:04;;;;;;;0.40;0.30;;;15.80;99.90;;;;;;4993506;28;20453;-78
2021/08/07 02:27:31;;;;;;;0.50;0.40;;;15.80;99.90;;;;;;4993414;28;20437;-79
2021/08/07 02:29:58;;;;;;;0.40;0.40;;;15.80;99.90;;;;;;4993625;28;20448;-79
2021/08/07 02:32:25;;;;;;;0.70;0.40;;;15.80;99.90;;;;;;4994325;28;20472;-84
2021/08/07 02:34:53;;;;;;;1.63;1.07;;;15.80;99.90;;;;;;4994453;28;20475;-84
2021/08/07 02:37:20;;;;;;;0.40;0.33;;;15.70;99.90;;;;;;4993890;28;20814;-79
2021/08/07 02:39:47;;;;;;;0.40;0.30;;;15.70;99.90;;;;;;4993515;28;20452;-79
2021/08/07 02:42:14;;;;;;;0.47;0.40;;;15.60;99.90;;;;;;4993425;28;20479;-80
2021/08/07 02:44:42;;;;;;;0.40;0.40;;;15.60;99.90;;;;;;4993238;28;20429;-80
2021/08/07 02:47:09;;;;;;;0.50;0.50;;;15.60;99.90;;;;;;4993362;28;20802;-80
2021/08/07 02:49:36;;;;;;;0.60;0.60;;;15.60;99.90;;;;;;4994984;28;20800;-84
2021/08/07 02:52:05;;;;;;;0.50;0.40;;;15.50;99.90;;;;;;4997006;28;20487;-80
2021/08/07 02:54:32;;;;;;;0.50;0.40;;;15.50;99.90;;;;;;4996895;28;20444;-80
2021/08/07 02:56:59;;;;;;;0.60;0.50;;;15.50;99.90;;;;;;4996535;28;20503;-80
2021/08/07 02:59:26;;;;;;;0.70;0.60;;;15.50;99.90;;;;;;4996998;28;20440;-79
2021/08/07 03:01:53;;;;;;;0.53;0.47;;;15.50;99.90;;;;;;4996486;28;20457;-79
2021/08/07 03:04:20;;;;;;;1.10;0.43;;;15.40;99.90;;;;;;4997245;28;20507;-84
2021/08/07 03:06:47;;;;;;;1.13;0.60;;;15.40;99.90;;;;;;4997513;28;20787;-84
2021/08/07 03:09:15;;;;;;;0.80;0.80;;;15.40;99.90;;;;;;4997340;28;20452;-84
2021/08/07 03:11:42;;;;;;;0.53;0.40;;;15.40;99.90;;;;;;4997206;28;20468;-84
2021/08/07 03:14:09;;;;;;;0.40;0.40;;;15.30;99.90;;;;;;4997039;28;20448;-80
2021/08/07 03:16:35;;;;;;;0.57;0.47;;;15.30;99.90;;;;;;4996532;28;20488;-80
2021/08/07 03:19:02;;;;;;;1.17;0.90;;;15.30;99.90;;;;;;4996313;28;20441;-80
2021/08/07 03:21:30;;;;;;;0.40;0.40;;;15.30;99.90;;;;;;4996412;28;20464;-80
2021/08/07 03:23:56;;;;;;;2.70;0.50;;;15.20;99.90;;;;;;4996358;28;20456;-79
2021/08/07 03:26:24;;;;;;;0.60;0.60;;;15.20;99.90;;;;;;4996354;28;20455;-80
2021/08/07 03:28:51;;;;;;;0.40;0.40;;;15.20;99.90;;;;;;4996569;28;20813;-82
2021/08/07 03:31:18;;;;;;;0.40;0.40;;;15.10;99.90;;;;;;4996178;28;20980;-82
2021/08/07 03:33:45;;;;;;;6.80;0.50;;;15.10;99.90;;;;;;4996564;28;20457;-84
2021/08/07 03:36:12;;;;;;;1.00;0.50;;;15.10;99.90;;;;;;4997666;28;20562;-84
2021/08/07 03:38:39;;;;;;;0.70;0.60;;;15.00;99.90;;;;;;4995981;28;20966;-78
2021/08/07 03:41:06;;;;;;;0.67;0.63;;;15.00;99.90;;;;;;4995746;28;20469;-82
2021/08/07 03:43:34;;;;;;;0.40;0.40;;;15.00;99.90;;;;;;4996189;28;20437;-82
2021/08/07 03:46:01;;;;;;;1.03;0.60;;;15.00;99.90;;;;;;4996209;28;20440;-82
2021/08/07 03:48:28;;;;;;;0.70;0.43;;;15.00;99.90;;;;;;4996563;28;20452;-84
2021/08/07 03:50:55;;;;;;;0.60;0.60;;;15.00;99.90;;;;;;4996685;28;20529;-84
2021/08/07 03:53:21;;;;;;;0.40;0.40;;;15.00;99.90;;;;;;4996803;28;20448;-82
2021/08/07 03:55:48;;;;;;;0.70;0.40;;;15.00;99.90;;;;;;4995863;28;20484;-82
2021/08/07 03:58:15;;;;;;;0.40;0.40;;;15.00;99.90;;;;;;4996948;28;20519;-82
2021/08/07 04:00:43;;;;;;;0.83;0.53;;;15.00;99.90;;;;;;4996153;28;20545;-82
2021/08/07 04:03:10;;;;;;;0.90;0.80;;;15.00;99.90;;;;;;4996028;28;20452;-82
2021/08/07 04:05:36;;;;;;;0.50;0.47;;;15.00;99.90;;;;;;4995726;28;20445;-83
2021/08/07 04:08:04;;;;;;;0.43;0.40;;;15.00;99.90;;;;;;4995895;28;20453;-82
2021/08/07 04:10:31;;;;;;;0.60;0.40;;;15.00;99.90;;;;;;4995412;28;20457;-79
2021/08/07 04:12:58;;;;;;;1.13;0.40;;;14.90;99.90;;;;;;4995454;28;20456;-78
2021/08/07 04:15:25;;;;;;;2.10;0.50;;;14.90;99.90;;;;;;4995381;28;20459;-81
2021/08/07 04:17:53;;;;;;;0.80;0.60;;;14.90;99.90;;;;;;4995486;28;20452;-81
2021/08/07 04:20:20;;;;;;;0.60;0.50;;;15.00;99.90;;;;;;4995240;28;20456;-78
2021/08/07 04:22:47;;;;;;;0.60;0.40;;;15.00;99.90;;;;;;4994969;28;20962;-78
2021/08/07 04:25:14;;;;;;;0.40;0.40;;;15.00;99.90;;;;;;4995247;28;20463;-78
2021/08/07 04:27:41;;;;;;;0.40;0.30;;;15.00;99.90;;;;;;4995361;28;20452;-81
2021/08/07 04:30:10;;;;;;;1.03;0.50;;;15.00;99.90;;;;;;4994820;28;20944;-79
2021/08/07 04:32:37;;;;;;;0.43;0.40;;;15.00;99.90;;;;;;4994649;28;20476;-78
2021/08/07 04:35:06;;;;;;;0.40;0.40;;;15.00;99.90;;;;;;4994712;28;20457;-78
2021/08/07 04:37:44;;;;;;;0.50;0.40;;;15.10;99.90;;;;;;4995408;28;20491;-84
2021/08/07 04:40:12;;;;;;;0.50;0.40;;;15.10;99.90;;;;;;4996135;28;20429;-84
2021/08/07 04:42:39;;;;;;;0.50;0.50;;;15.10;99.90;;;;;;4995224;28;20820;-79
2021/08/07 04:45:07;;;;;;;0.50;0.50;;;15.10;99.90;;;;;;4994941;28;20467;-79
2021/08/07 04:47:33;;;;;;;0.43;0.43;;;15.10;99.90;;;;;;4995192;28;20436;-84
2021/08/07 04:50:00;;;;;;;0.40;0.40;;;15.10;99.90;;;;;;4995266;28;20933;-84
2021/08/07 04:52:28;;;;;;;0.50;0.50;;;15.10;99.90;;;;;;4995112;28;20464;-84
2021/08/07 04:54:55;;;;;;;0.60;0.60;;;15.10;99.90;;;;;;4995363;28;20805;-82
2021/08/07 04:57:21;;;;;;;0.93;0.63;;;15.10;99.90;;;;;;4994215;28;20485;-81
2021/08/07 04:59:48;;;;;;;0.47;0.47;;;15.20;99.90;;;;;;4994663;28;20452;-81
2021/08/07 05:02:15;;;;;;;0.50;0.50;;;15.20;99.90;;;;;;4994547;28;20463;-84
2021/08/07 05:04:41;;;;;;;0.47;0.47;;;15.20;99.90;;;;;;4995024;28;20825;-84
2021/08/07 05:07:08;;;;;;;0.40;0.40;;;15.30;99.90;;;;;;4994869;28;20455;-84
2021/08/07 05:09:36;;;;;;;0.63;0.50;;;15.30;99.90;;;;;;4994912;28;20943;-84
2021/08/07 05:12:03;;;;;;;1.10;0.60;;;15.30;99.90;;;;;;4994172;28;20461;-82
2021/08/07 05:14:30;;;;;;;0.60;0.60;;;15.30;99.90;;;;;;4994283;28;20795;-82
2021/08/07 05:16:57;;;;;;;0.30;0.30;;;15.40;99.90;;;;;;4994385;28;20495;-84
2021/08/07 05:19:24;;;;;;;0.40;0.40;;;15.40;99.90;;;;;;4995128;28;20448;-84
2021/08/07 05:21:50;;;;;;;0.67;0.67;;;15.40;99.90;;;;;;4994757;28;20457;-84
2021/08/07 05:24:17;;;;;;;0.70;0.63;;;15.50;99.90;;;;;;4994453;28;20444;-82
2021/08/07 05:26:45;;;;;;;0.63;0.53;;;15.50;99.90;;;;;;4994330;28;20467;-80
2021/08/07 05:29:12;;;;;;;0.40;0.33;;;15.50;99.90;;;;;;4994242;28;20445;-79
2021/08/07 05:31:38;;;;;;;0.50;0.50;;;15.50;99.90;;;;;;4994086;28;20488;-79
2021/08/07 05:34:05;;;;;;;0.43;0.30;;;15.50;99.90;;;;;;4994274;28;20449;-81
2021/08/07 05:36:32;;;;;;;0.57;0.50;;;15.60;99.90;;;;;;4994200;28;20488;-81
2021/08/07 05:38:59;;;;;;;1.33;0.60;;;15.60;99.90;;;;;;4994266;28;20449;-84
2021/08/07 05:41:25;;;;;;;0.40;0.37;;;15.60;99.90;;;;;;4994787;28;20456;-84
2021/08/07 05:43:53;;;;;;;1.53;0.63;;;15.70;99.90;;;;;;4994994;28;20511;-84
2021/08/07 05:46:20;;;;;;;0.40;0.40;;;15.70;99.90;;;;;;4996103;28;20449;-79
2021/08/07 05:48:47;;;;;;;0.40;0.40;;;15.70;99.90;;;;;;4993948;28;20805;-78
2021/08/07 05:51:14;;;;;;;0.40;0.40;;;15.80;99.90;;;;;;4993592;28;20547;-79
2021/08/07 05:53:40;;;;;;;0.40;0.40;;;15.90;99.90;;;;;;4994103;28;20457;-79
2021/08/07 05:56:07;;;;;;;0.47;0.37;;;16.00;99.90;;;;;;4993694;28;20519;-82
2021/08/07 05:58:37;;;;;;;0.50;0.50;;;16.10;99.90;;;;;;4994080;28;20415;-82
2021/08/07 06:01:06;;;;;;;0.67;0.67;;;16.20;99.90;;;;;;4993980;28;20477;-81
2021/08/07 06:03:33;;;;;;;0.53;0.40;;;16.30;99.90;;;;;;4994104;28;20457;-81
2021/08/07 06:05:59;;;;;;;0.60;0.40;;;16.30;99.90;;;;;;4993575;28;20967;-82
2021/08/07 06:08:28;;;;;;;0.40;0.30;;;16.40;99.90;;;;;;4993900;28;20453;-81
2021/08/07 06:10:55;;;;;;;0.50;0.50;;;16.60;99.90;;;;;;4993854;28;20915;-82
2021/08/07 06:13:21;;;;;;;0.60;0.40;;;16.60;99.90;;;;;;4994099;28;20452;-82
2021/08/07 06:15:48;;;;;;;0.40;0.37;;;16.70;99.90;;;;;;4993809;28;20459;-82
2021/08/07 06:18:17;;;;;;;0.43;0.43;;;16.70;99.90;;;;;;4993927;28;20455;-82
2021/08/07 06:20:44;;;;;;;0.50;0.33;;;16.80;99.90;;;;;;4993487;28;20461;-81
2021/08/07 06:23:11;;;;;;;1.10;0.50;;;16.80;99.90;;;;;;4994730;28;20952;-81
2021/08/07 06:25:38;;;;;;;0.40;0.40;;;16.90;99.90;;;;;;4996763;28;20459;-81
2021/08/07 06:28:05;;;;;;;0.43;0.43;;;16.90;99.90;;;;;;4997431;28;20451;-83
2021/08/07 06:30:32;;;;;;;0.97;0.40;;;16.90;99.90;;;;;;4997480;28;20455;-83
2021/08/07 06:33:00;;;;;;;0.50;0.50;;;17.00;99.90;;;;;;4997480;28;20456;-82
2021/08/07 06:35:28;;;;;;;2.93;0.50;;;17.20;99.90;;;;;;4997295;28;20452;-83
2021/08/07 06:37:55;;;;;;;0.40;0.40;;;17.40;99.90;;;;;;4997569;28;20476;-83
2021/08/07 06:40:22;;;;;;;0.40;0.40;;;17.50;99.90;;;;;;4997431;28;20448;-83
2021/08/07 06:42:49;;;;;;;0.40;0.40;;;17.70;99.90;;;;;;4997637;28;20441;-83
2021/08/07 06:45:16;;;;;;;0.40;0.40;;;17.80;99.90;;;;;;4997126;28;20441;-82
2021/08/07 06:47:43;;;;;;;0.50;0.40;;;17.90;99.90;;;;;;4997243;28;20452;-83
2021/08/07 06:50:10;;;;;;;0.63;0.40;;;17.90;99.90;;;;;;4997393;28;20452;-83
2021/08/07 06:52:39;;;;;;;0.40;0.40;;;18.00;99.90;;;;;;4997309;28;20464;-83
2021/08/07 06:55:06;;;;;;;0.40;0.40;;;18.10;99.90;;;;;;4997292;28;20507;-83
2021/08/07 06:57:33;;;;;;;0.50;0.47;;;18.10;99.90;;;;;;4997018;28;20495;-83
2021/08/07 07:00:02;;;;;;;0.50;0.50;;;18.30;99.90;;;;;;4997441;28;20456;-83
2021/08/07 07:02:29;;;;;;;0.37;0.37;;;18.40;99.90;;;;;;4997312;28;20493;-83
2021/08/07 07:04:55;;;;;;;2.30;0.60;;;18.50;99.90;;;;;;4996977;28;20966;-83
2021/08/07 07:07:22;;;;;;;0.40;0.30;;;18.50;99.90;;;;;;4997744;28;20451;-83
2021/08/07 07:09:50;;;;;;;0.50;0.50;;;18.50;99.90;;;;;;4996942;28;20452;-83
2021/08/07 07:12:17;;;;;;;0.53;0.53;;;18.50;99.90;;;;;;4996897;28;20987;-83
2021/08/07 07:14:44;;;;;;;0.60;0.60;;;18.60;99.90;;;;;;4996951;28;20451;-80
2021/08/07 07:17:11;;;;;;;1.00;0.50;;;18.80;99.90;;;;;;4996439;28;20483;-79
2021/08/07 07:19:38;;;;;;;0.47;0.47;;;19.00;99.90;;;;;;4996549;28;20433;-80
2021/08/07 07:22:04;;;;;;;0.40;0.40;;;19.00;99.90;;;;;;4996460;28;20559;-81
2021/08/07 07:24:31;;;;;;;0.47;0.47;;;19.00;99.90;;;;;;4996777;28;20437;-83
2021/08/07 07:27:00;;;;;;;0.53;0.40;;;18.90;99.90;;;;;;4996766;28;20472;-79
2021/08/07 07:29:27;;;;;;;0.50;0.40;;;18.90;99.90;;;;;;4996311;28;20451;-80
2021/08/07 07:31:54;;;;;;;0.60;0.50;;;18.80;99.90;;;;;;4996461;28;20472;-85
2021/08/07 07:34:20;;;;;;;0.57;0.50;;;18.70;99.90;;;;;;4996809;28;20445;-82
2021/08/07 07:36:47;;;;;;;0.40;0.40;;;18.70;99.90;;;;;;4995962;28;20842;-83
2021/08/07 07:39:14;;;;;;;0.47;0.30;;;18.80;99.90;;;;;;4996317;28;20456;-82
2021/08/07 07:41:41;;;;;;;0.57;0.57;;;18.90;99.90;;;;;;4996016;28;20461;-83
2021/08/07 07:44:09;;;;;;;0.50;0.50;;;19.10;99.90;;;;;;4996498;28;20452;-83
2021/08/07 07:46:36;;;;;;;0.40;0.30;;;19.20;99.90;;;;;;4996565;28;20448;-83
2021/08/07 07:49:03;;;;;;;0.50;0.40;;;19.40;99.90;;;;;;4995998;28;20444;-83
2021/08/07 07:51:30;;;;;;;0.40;0.40;;;19.40;99.90;;;;;;4996011;28;20460;-83
2021/08/07 07:53:56;;;;;;;0.80;0.50;;;19.50;99.90;;;;;;4996596;28;20928;-84
2021/08/07 07:56:24;;;;;;;0.40;0.33;;;19.60;99.90;;;;;;4996312;28;20471;-85
2021/08/07 07:58:51;;;;;;;0.50;0.40;;;19.70;99.90;;;;;;4996004;28;20543;-83
2021/08/07 08:01:19;;;;;;;0.40;0.40;;;19.80;99.90;;;;;;4996057;28;20475;-81
2021/08/07 08:03:46;;;;;;;1.17;0.40;;;19.80;99.90;;;;;;4995918;28;20485;-81
2021/08/07 08:06:13;;;;;;;0.40;0.30;;;19.80;99.90;;;;;;4996354;28;20452;-84
2021/08/07 08:08:39;;;;;;;0.47;0.40;;;19.80;99.90;;;;;;4996336;28;20455;-85
2021/08/07 08:11:06;;;;;;;0.57;0.50;;;19.90;99.90;;;;;;4996192;28;20875;-80
2021/08/07 08:13:33;;;;;;;0.47;0.40;;;19.90;99.90;;;;;;4995451;28;20458;-79
2021/08/07 08:16:00;;;;;;;0.30;0.30;;;19.80;99.90;;;;;;4995378;28;20471;-79
2021/08/07 08:18:28;;;;;;;0.57;0.40;;;19.70;99.90;;;;;;4995504;28;20510;-81
2021/08/07 08:20:55;;;;;;;0.50;0.50;;;19.70;99.90;;;;;;4995294;28;20554;-81
2021/08/07 08:23:22;;;;;;;0.40;0.30;;;19.60;99.90;;;;;;4995052;28;20440;-79
2021/08/07 08:25:49;;;;;;;0.40;0.40;;;19.60;99.90;;;;;;4995427;28;20452;-80
2021/08/07 08:28:16;;;;;;;0.60;0.40;;;19.60;99.90;;;;;;4995333;28;20440;-81
2021/08/07 08:30:43;;;;;;;0.40;0.40;;;19.60;99.90;;;;;;4995229;28;20472;-84
2021/08/07 08:33:10;;;;;;;0.90;0.37;;;19.50;99.90;;;;;;4996225;28;20448;-85
2021/08/07 08:35:38;;;;;;;0.80;0.60;;;19.50;99.90;;;;;;4995422;28;20828;-78
2021/08/07 08:38:05;;;;;;;0.40;0.40;;;19.50;99.90;;;;;;4994893;28;20505;-78
2021/08/07 08:40:32;;;;;;;0.50;0.50;;;19.40;99.90;;;;;;4994867;28;20451;-78
2021/08/07 08:42:59;;;;;;;0.60;0.40;;;19.50;99.90;;;;;;4995263;28;20454;-84
2021/08/07 08:45:26;;;;;;;0.43;0.40;;;19.40;99.90;;;;;;4995235;28;20499;-82
2021/08/07 08:47:53;;;;;;;0.47;0.30;;;19.40;99.90;;;;;;4994292;28;20452;-81
2021/08/07 08:50:22;;;;;;;0.40;0.33;;;19.40;99.90;;;;;;4994913;28;20936;-81
2021/08/07 08:52:51;;;;;;;0.53;0.47;;;19.30;99.90;;;;;;4994828;28;20539;-79
2021/08/07 08:55:18;;;;;;;0.43;0.40;;;19.30;99.90;;;;;;4994465;28;20428;-79
2021/08/07 08:57:45;;;;;;;0.57;0.40;;;19.20;99.90;;;;;;4994467;28;20495;-84
2021/08/07 09:00:13;;;;;;;0.63;0.57;;;19.20;99.90;;;;;;4994898;28;20448;-82
2021/08/07 09:02:40;;;;;;;0.43;0.37;;;19.10;99.90;;;;;;4994543;28;20808;-82
2021/08/07 09:05:10;;;;;;;0.40;0.30;;;19.20;99.90;;;;;;4994606;28;20455;-82
2021/08/07 09:07:37;;;;;;;0.50;0.40;;;19.10;99.90;;;;;;4994824;28;20446;-81
2021/08/07 09:10:06;;;;;;;0.40;0.40;;;19.00;99.90;;;;;;4994571;28;20463;-81
2021/08/07 09:12:42;;;;;;;1.00;0.70;;;19.00;99.90;;;;;;4994460;28;20822;-81
2021/08/07 09:15:32;;;;;;;0.90;0.40;;;19.00;99.90;;;;;;4994246;28;20821;-81
2021/08/07 09:18:17;;;;;;;0.30;0.30;;;19.10;99.90;;;;;;4995074;28;20477;-84
2021/08/07 09:20:47;;;;;;;1.73;0.70;;;19.10;99.90;;;;;;4995027;28;20452;-84
2021/08/07 09:23:15;;;;;;;0.50;0.40;;;19.20;99.90;;;;;;4995249;28;20444;-86
2021/08/07 09:25:45;;;;;;;0.40;0.40;;;19.20;99.90;;;;;;4994849;28;20520;-80
2021/08/07 09:28:12;;;;;;;0.43;0.40;;;19.20;99.90;;;;;;4995199;28;20455;-86
2021/08/07 09:30:41;;;;;;;0.40;0.33;;;19.20;99.90;;;;;;4995139;28;20475;-86
2021/08/07 09:33:09;;;;;;;0.50;0.30;;;19.10;99.90;;;;;;4995308;28;20444;-86
2021/08/07 09:35:38;;;;;;;0.30;0.30;;;19.10;99.90;;;;;;4995163;28;20936;-86
2021/08/07 09:38:19;;;;;;;0.50;0.40;;;19.10;99.90;;;;;;4994705;28;20464;-86
2021/08/07 09:40:50;;;;;;;0.43;0.43;;;19.00;99.90;;;;;;4995114;28;20959;-86
2021/08/07 09:43:19;;;;;;;0.40;0.40;;;19.00;99.90;;;;;;4995228;28;20441;-86
2021/08/07 09:46:02;;;;;;;0.40;0.40;;;18.90;99.90;;;;;;4995027;28;20428;-86
2021/08/07 09:48:34;;;;;;;2.60;0.50;;;18.90;99.90;;;;;;4994796;28;20423;-86
2021/08/07 09:51:01;;;;;;;0.40;0.40;;;18.90;99.90;;;;;;4994933;28;20483;-86
2021/08/07 09:53:28;;;;;;;0.40;0.40;;;18.80;99.90;;;;;;4994746;28;20433;-86
2021/08/07 09:56:02;;;;;;;0.40;0.37;;;18.70;99.90;;;;;;4994836;28;20484;-86
2021/08/07 09:58:28;;;;;;;1.80;0.40;;;18.60;99.90;;;;;;4996205;28;20480;-84
2021/08/07 10:00:55;;;;;;;0.97;0.70;;;18.50;99.90;;;;;;4998853;28;20471;-84
2021/08/07 10:03:26;;;;;;;0.90;0.47;;;18.40;99.90;;;;;;4998650;28;20440;-84
2021/08/07 10:05:53;;;;;;;0.50;0.40;;;18.20;99.90;;;;;;4998386;28;20429;-83
2021/08/07 10:08:19;;;;;;;0.40;0.40;;;18.10;99.90;;;;;;4998380;28;20436;-83
2021/08/07 10:10:50;;;;;;;6.33;0.70;;;17.90;99.90;;;;;;4998448;28;20453;-85
2021/08/07 10:13:19;;;;;;;0.80;0.67;;;17.70;99.90;;;;;;4998771;28;20781;-85
2021/08/07 10:15:46;;;;;;;0.97;0.30;;;17.60;99.90;;;;;;4998625;28;20429;-84
2021/08/07 10:18:13;;;;;;;0.53;0.50;;;17.50;99.90;;;;;;4998617;28;20472;-85
2021/08/07 10:20:42;;;;;;;0.60;0.50;;;17.30;99.90;;;;;;4998686;28;20472;-85
2021/08/07 10:23:09;;;;;;;0.57;0.40;;;17.30;99.90;;;;;;4998578;28;20440;-84
2021/08/07 10:25:42;;;;;;;0.77;0.77;;;17.20;99.90;;;;;;4998228;28;20421;-85
2021/08/07 10:28:11;;;;;;;0.53;0.50;;;17.10;99.90;;;;;;4999068;28;20885;-86
2021/08/07 10:30:43;;;;;;;0.70;0.70;;;17.10;99.90;;;;;;4998443;28;20464;-86
2021/08/07 10:33:12;;;;;;;0.47;0.47;;;17.10;99.90;;;;;;4998381;28;20429;-86
2021/08/07 10:35:40;;;;;;;4.43;0.60;;;17.00;99.90;;;;;;4998442;28;20832;-86
2021/08/07 10:38:07;;;;;;;0.60;0.53;;;17.00;99.90;;;;;;4997920;28;20469;-86
2021/08/07 10:40:36;;;;;;;1.33;0.60;;;17.00;99.90;;;;;;4998151;28;20931;-86
2021/08/07 10:43:04;;;;;;;3.50;0.50;;;17.00;99.90;;;;;;4998285;28;20433;-84
2021/08/07 10:45:31;;;;;;;1.00;0.60;;;17.00;99.90;;;;;;4998002;28;20468;-90
2021/08/07 10:47:59;;;;;;;0.90;0.40;;;16.90;99.90;;;;;;4998223;28;20430;-88
2021/08/07 10:50:38;;;;;;;0.60;0.60;;;16.90;99.90;;;;;;4998096;28;20483;-89
2021/08/07 10:53:37;;;;;;;0.50;0.50;;;16.80;99.90;;;;;;4997922;28;20421;-89
2021/08/07 10:56:04;;;;;;;0.70;0.60;;;16.80;99.90;;;;;;4997826;28;20542;-90
2021/08/07 10:58:33;;;;;;;0.93;0.57;;;16.80;99.90;;;;;;4997712;28;20479;-89
2021/08/07 11:01:26;;;;;;;1.13;0.53;;;16.80;99.90;;;;;;4997736;28;20460;-90
2021/08/07 11:04:16;;;;;;;2.37;0.70;;;16.80;99.90;;;;;;4998024;28;20916;-89
2021/08/07 11:07:02;;;;;;;1.80;0.70;;;16.80;99.90;;;;;;4998039;28;20441;-89
2021/08/07 11:09:32;;;;;;;0.77;0.60;;;16.70;99.90;;;;;;4997351;28;20523;-89
2021/08/07 11:12:30;;;;;;;0.60;0.50;;;16.60;99.90;;;;;;4997456;28;21044;-89
2021/08/07 11:15:02;;;;;;;0.83;0.60;;;16.50;99.90;;;;;;4997528;28;20425;-87
2021/08/07 11:17:48;;;;;;;1.53;0.57;;;16.50;99.90;;;;;;4997673;28;20432;-88
2021/08/07 11:20:37;;;;;;;2.23;1.50;;;16.50;99.90;;;;;;4998438;28;20441;-85
2021/08/07 11:23:17;;;;;;;1.67;0.97;;;16.50;99.90;;;;;;4997599;28;20437;-85
2021/08/07 11:26:08;;;;;;;0.43;0.43;;;16.50;99.90;;;;;;4997701;28;20429;-85
2021/08/07 11:29:07;;;;;;;0.63;0.63;;;16.50;99.90;;;;;;4997510;28;20885;-85
2021/08/07 11:31:33;;;;;;;0.50;0.40;;;16.50;99.90;;;;;;4997120;28;20482;-85
2021/08/07 11:34:23;;;;;;;0.40;0.40;;;16.50;99.90;;;;;;4997809;28;20413;-85
2021/08/07 11:37:13;;;;;;;0.43;0.43;;;16.40;99.90;;;;;;4992185;28;20449;-85
2021/08/07 11:40:06;;;;;;;0.43;0.43;;;16.40;99.90;;;;;;4997117;28;20465;-86
2021/08/07 11:42:35;;;;;;;1.60;0.70;;;16.40;99.90;;;;;;4997352;28;20828;-86
2021/08/07 11:45:02;;;;;;;0.40;0.40;;;16.40;99.90;;;;;;4997026;28;20433;-86
2021/08/07 11:47:29;;;;;;;0.30;0.30;;;16.40;99.90;;;;;;4997279;28;20444;-85
2021/08/07 11:49:57;;;;;;;0.40;0.33;;;16.50;99.90;;;;;;4996815;28;20429;-86
2021/08/07 11:52:29;;;;;;;0.40;0.40;;;16.50;99.90;;;;;;4996595;28;20472;-86
2021/08/07 11:54:57;;;;;;;0.40;0.40;;;16.60;99.90;;;;;;4997014;28;20437;-86
2021/08/07 11:57:24;;;;;;;0.50;0.50;;;16.60;99.90;;;;;;4996468;28;20527;-86
2021/08/07 11:59:51;;;;;;;0.73;0.73;;;16.60;99.90;;;;;;4996476;28;20484;-86
2021/08/07 12:02:18;;;;;;;0.97;0.87;;;16.60;99.90;;;;;;4996411;28;20460;-85
2021/08/07 12:04:45;;;;;;;0.70;0.50;;;16.60;99.90;;;;;;4996397;28;20433;-86
2021/08/07 12:07:12;;;;;;;0.50;0.50;;;16.60;99.90;;;;;;4996520;28;20456;-86
2021/08/07 12:10:04;;;;;;;0.60;0.60;;;16.60;99.90;;;;;;4996476;28;20536;-85
2021/08/07 12:12:31;;;;;;;0.83;0.40;;;16.60;99.90;;;;;;4996431;28;20472;-85
2021/08/07 12:15:05;;;;;;;0.50;0.40;;;16.60;99.90;;;;;;4996587;28;20463;-86
2021/08/07 12:17:32;;;;;;;0.50;0.40;;;16.50;99.90;;;;;;4996562;28;20924;-85
2021/08/07 12:20:01;;;;;;;1.60;0.60;;;16.50;99.90;;;;;;4996263;28;20487;-86
2021/08/07 12:22:28;;;;;;;0.80;0.60;;;16.50;99.90;;;;;;4996795;28;20494;-85
2021/08/07 12:25:03;;;;;;;0.40;0.30;;;16.50;99.90;;;;;;4996015;28;20441;-85
2021/08/07 12:27:30;;;;;;;0.70;0.70;;;16.50;99.90;;;;;;4996281;28;20420;-86
2021/08/07 12:29:56;;;;;;;0.40;0.40;;;16.60;99.90;;;;;;4996201;28;20452;-85
2021/08/07 12:32:23;;;;;;;0.43;0.43;;;16.60;99.90;;;;;;4996056;28;20484;-86
2021/08/07 12:34:50;;;;;;;0.80;0.80;;;16.60;99.90;;;;;;4996201;28;20416;-86
2021/08/07 12:37:20;;;;;;;0.50;0.40;;;16.60;99.90;;;;;;4995752;28;20421;-85
2021/08/07 12:39:49;;;;;;;0.40;0.40;;;16.60;99.90;;;;;;4995391;28;20535;-85
2021/08/07 12:42:23;;;;;;;0.50;0.47;;;16.60;99.90;;;;;;4996160;28;20541;-85
2021/08/07 12:44:57;;;;;;;0.60;0.60;;;16.60;99.90;;;;;;4995984;28;20445;-86
2021/08/07 12:47:26;;;;;;;0.93;0.50;;;16.60;99.90;;;;;;4995985;28;20789;-86
2021/08/07 12:49:53;;;;;;;0.57;0.40;;;16.50;99.90;;;;;;4996064;28;20540;-86
2021/08/07 12:52:20;;;;;;;0.90;0.40;;;16.50;99.90;;;;;;4995729;28;20818;-86
2021/08/07 12:55:09;;;;;;;0.43;0.43;;;16.50;99.90;;;;;;4995374;28;20418;-87
2021/08/07 12:57:38;;;;;;;0.40;0.40;;;16.40;99.90;;;;;;4995366;28;20563;-88